Time;durP1;ratioP1;P1;durP2;ratioP2;P2;SDS_P1;SDS_P2;PMS_P1;PMS_P2;Temp;Humidity;BMP_temperature;BMP_pressure;BME280_temperature;BME280_humidity;BME280_pressure;Samples;Min_cycle;Max_cycle;Signal;HPM_P1;HPM_P2
2021/05/18 00:02:24;;;;;;;4.05;1.25;;;25.30;27.40;;;;;;4358636;32;20083;-30
2021/05/18 00:04:50;;;;;;;2.80;1.00;;;25.20;27.50;;;;;;4358638;32;20085;-30
2021/05/18 00:07:21;;;;;;;6.47;1.10;;;25.10;27.50;;;;;;4358666;32;20067;-30
2021/05/18 00:12:33;;;;;;;1.67;0.70;;;25.00;27.60;;;;;;4358413;32;20066;-30
2021/05/18 00:15:00;;;;;;;4.37;0.95;;;25.00;27.70;;;;;;4358557;32;20058;-34
2021/05/18 00:17:28;;;;;;;3.92;1.00;;;24.90;27.70;;;;;;4358653;32;20150;-32
2021/05/18 00:19:54;;;;;;;2.45;1.00;;;24.80;27.70;;;;;;4358338;32;20461;-31
2021/05/18 00:22:21;;;;;;;2.37;0.77;;;24.70;27.90;;;;;;4344831;32;20059;-31
2021/05/18 00:24:47;;;;;;;2.37;0.98;;;24.60;27.90;;;;;;4358881;32;20095;-30
2021/05/18 00:27:14;;;;;;;3.40;0.80;;;24.60;28.00;;;;;;4358017;32;20070;-33
2021/05/18 00:29:40;;;;;;;6.00;1.10;;;24.40;28.00;;;;;;4358306;32;20137;-33
2021/05/18 00:32:07;;;;;;;5.10;0.80;;;24.30;28.20;;;;;;4344641;32;20077;-32
2021/05/18 00:34:33;;;;;;;4.90;0.80;;;24.20;28.30;;;;;;4358387;32;20078;-31
2021/05/18 00:36:59;;;;;;;3.08;0.70;;;24.00;28.50;;;;;;4344928;32;20152;-31
2021/05/18 00:39:26;;;;;;;4.50;1.00;;;24.00;28.60;;;;;;4357836;32;20074;-31
2021/05/18 00:41:52;;;;;;;6.40;1.20;;;23.90;28.70;;;;;;4344200;32;20054;-33
2021/05/18 00:44:19;;;;;;;3.90;0.70;;;23.80;28.70;;;;;;4344247;32;20448;-32
2021/05/18 00:46:45;;;;;;;3.47;0.70;;;23.80;28.90;;;;;;4357664;32;20464;-32
2021/05/18 00:49:12;;;;;;;3.12;1.17;;;23.70;29.10;;;;;;4358035;32;20553;-31
2021/05/18 00:51:40;;;;;;;5.55;1.35;;;23.60;29.20;;;;;;4357653;32;20477;-32
2021/05/18 00:54:11;;;;;;;4.82;1.55;;;23.60;29.40;;;;;;4344618;32;20070;-31
2021/05/18 00:59:04;;;;;;;5.22;0.90;;;23.40;29.40;;;;;;4317712;33;20148;-33
2021/05/18 01:01:31;;;;;;;5.65;1.00;;;23.40;29.80;;;;;;4343204;33;20546;-31
2021/05/18 01:03:57;;;;;;;2.33;0.80;;;23.50;30.00;;;;;;4343235;33;20143;-31
2021/05/18 01:06:28;;;;;;;2.20;0.90;;;23.60;30.10;;;;;;4343112;33;20170;-30
2021/05/18 01:09:10;;;;;;;5.70;1.00;;;23.60;30.00;;;;;;4316957;33;20094;-30
2021/05/18 01:11:43;;;;;;;8.02;1.02;;;23.60;29.70;;;;;;4296132;33;20072;-32
2021/05/18 01:14:16;;;;;;;7.80;1.00;;;23.60;29.80;;;;;;4296309;33;20650;-33
2021/05/18 01:16:45;;;;;;;6.75;1.02;;;23.50;30.50;;;;;;4296937;33;20138;-30
2021/05/18 01:19:14;;;;;;;10.80;1.45;;;23.50;29.80;;;;;;4296608;33;20538;-33
2021/05/18 01:21:41;;;;;;;13.80;1.23;;;23.50;29.80;;;;;;4296677;33;20150;-33
2021/05/18 01:24:07;;;;;;;11.55;1.58;;;23.60;30.00;;;;;;4298989;33;20075;-36
2021/05/18 01:26:35;;;;;;;23.65;2.53;;;23.60;30.00;;;;;;4299831;33;20106;-31
2021/05/18 01:29:02;;;;;;;11.32;1.30;;;23.70;29.80;;;;;;4299665;33;20552;-32
2021/05/18 01:31:30;;;;;;;19.70;2.53;;;23.80;29.10;;;;;;4299342;33;20147;-32
2021/05/18 01:33:59;;;;;;;18.23;3.65;;;23.90;29.30;;;;;;4299719;33;20084;-31
2021/05/18 01:36:26;;;;;;;22.85;5.95;;;24.00;29.50;;;;;;4299240;33;20071;-31
2021/05/18 01:39:02;;;;;;;15.93;3.12;;;24.20;29.50;;;;;;4299292;33;20063;-33
2021/05/18 01:44:14;;;;;;;18.33;2.70;;;24.60;30.80;;;;;;4299076;33;20165;-32
2021/05/18 01:46:43;;;;;;;44.35;5.53;;;24.90;32.20;;;;;;4287176;33;20110;-31
2021/05/18 01:49:11;;;;;;;19.92;3.78;;;25.20;33.20;;;;;;4324120;33;20191;-33
2021/05/18 01:51:40;;;;;;;12.98;3.50;;;25.50;34.30;;;;;;4346128;33;20075;-30
2021/05/18 01:54:11;;;;;;;27.67;14.25;;;25.80;35.50;;;;;;4345874;33;20078;-30
2021/05/18 01:59:13;;;;;;;9.68;2.00;;;26.30;35.80;;;;;;4360276;32;20141;-31
2021/05/18 02:01:41;;;;;;;12.40;2.12;;;26.80;35.00;;;;;;4360607;32;20137;-32
2021/05/18 02:04:08;;;;;;;14.23;5.45;;;27.10;34.00;;;;;;4360761;32;20182;-31
2021/05/18 02:06:35;;;;;;;8.57;1.65;;;27.60;33.80;;;;;;4360298;32;20082;-31
2021/05/18 02:09:03;;;;;;;47.05;42.40;;;27.90;32.50;;;;;;4360231;32;20070;-31
2021/05/18 02:11:31;;;;;;;10.27;2.70;;;28.10;32.20;;;;;;4360363;32;20109;-32
2021/05/18 02:14:03;;;;;;;10.18;1.87;;;28.30;31.30;;;;;;4346400;32;20073;-36
2021/05/18 02:16:33;;;;;;;6.30;1.75;;;28.50;31.40;;;;;;4359958;32;20105;-37
2021/05/18 02:26:38;;;;;;;7.95;1.65;;;29.20;30.50;;;;;;4359865;32;20066;-33
2021/05/18 02:29:04;;;;;;;12.50;2.15;;;29.40;30.20;;;;;;4359603;32;20074;-37
2021/05/18 02:31:31;;;;;;;9.93;1.70;;;29.60;29.90;;;;;;4346161;32;20094;-36
2021/05/18 02:33:58;;;;;;;6.97;1.50;;;29.70;29.40;;;;;;4359439;32;20459;-33
2021/05/18 02:36:26;;;;;;;7.57;1.25;;;29.90;29.50;;;;;;4360404;32;20067;-33
2021/05/18 02:38:53;;;;;;;6.18;1.83;;;30.00;28.80;;;;;;4359769;32;20090;-33
2021/05/18 02:41:20;;;;;;;5.55;1.75;;;30.20;28.50;;;;;;4346113;32;20568;-31
2021/05/18 02:43:59;;;;;;;11.05;1.70;;;30.30;27.20;;;;;;4359593;32;20062;-33
2021/05/18 02:49:08;;;;;;;7.00;1.10;;;30.80;26.20;;;;;;4345938;32;20630;-31
2021/05/18 02:51:35;;;;;;;10.50;1.52;;;31.10;26.30;;;;;;4359822;32;20065;-30
2021/05/18 02:54:02;;;;;;;6.57;1.62;;;31.40;26.50;;;;;;4360005;32;20086;-34
2021/05/18 02:56:42;;;;;;;8.68;2.92;;;31.90;26.00;;;;;;4359286;32;20066;-30
2021/05/18 02:59:15;;;;;;;16.23;2.10;;;32.20;27.10;;;;;;4344706;33;20070;-31
2021/05/18 03:01:43;;;;;;;18.50;2.10;;;32.80;26.90;;;;;;4344425;33;20082;-30
2021/05/18 03:04:09;;;;;;;28.12;3.00;;;33.40;26.10;;;;;;4344524;33;20531;-32
2021/05/18 03:06:36;;;;;;;18.62;2.75;;;33.90;25.30;;;;;;4344542;33;20143;-30
2021/05/18 03:09:09;;;;;;;11.95;2.37;;;34.50;24.90;;;;;;4344439;33;20245;-30
2021/05/18 03:11:36;;;;;;;8.88;1.75;;;35.00;24.40;;;;;;4344422;33;20082;-31
2021/05/18 03:14:03;;;;;;;12.52;1.77;;;35.50;24.20;;;;;;4330573;33;20607;-30
2021/05/18 03:16:30;;;;;;;7.75;1.80;;;36.00;23.60;;;;;;4343937;33;20066;-30
2021/05/18 03:18:56;;;;;;;23.45;4.05;;;36.40;23.00;;;;;;4330550;33;20058;-31
2021/05/18 03:21:23;;;;;;;13.62;5.57;;;36.90;23.10;;;;;;4344192;33;20062;-32
2021/05/18 03:23:49;;;;;;;16.05;2.97;;;37.30;23.60;;;;;;4344142;33;20519;-32
2021/05/18 03:26:16;;;;;;;8.95;2.05;;;37.40;23.40;;;;;;4344437;33;20074;-32
2021/05/18 03:28:42;;;;;;;6.45;1.52;;;37.60;23.00;;;;;;4344168;33;20074;-31
2021/05/18 03:36:46;;;;;;;13.70;2.20;;;38.20;23.10;;;;;;4343731;33;20081;-31
2021/05/18 03:39:13;;;;;;;10.88;1.55;;;38.40;23.00;;;;;;4343875;33;20448;-30
2021/05/18 03:42:14;;;;;;;19.02;2.80;;;38.70;22.60;;;;;;4344153;33;20070;-30
2021/05/18 03:52:30;;;;;;;9.48;1.73;;;40.20;22.40;;;;;;4343734;33;20083;-31
2021/05/18 04:03:19;;;;;;;9.45;1.60;;;41.00;23.40;;;;;;4358814;32;20553;-31
2021/05/18 04:53:59;;;;;;;26.48;4.22;;;42.80;25.30;;;;;;4267668;33;20147;-34
2021/05/18 04:59:10;;;;;;;21.52;4.87;;;42.50;24.80;;;;;;4294136;33;20076;-31
2021/05/18 05:01:55;;;;;;;9.60;2.60;;;42.50;24.90;;;;;;4300048;33;20071;-30
2021/05/18 05:06:13;;;;;;;19.95;2.87;;;42.60;25.00;;;;;;4299684;33;20549;-33
2021/05/18 05:07:12;;;;;;;11.43;3.42;;;42.70;25.50;;;;;;4299615;33;20111;-31
2021/05/18 05:09:47;;;;;;;11.95;2.60;;;42.70;25.80;;;;;;4299784;33;20067;-32
2021/05/18 05:14:52;;;;;;;8.60;2.00;;;42.70;26.20;;;;;;4302647;33;20075;-36
2021/05/18 05:17:18;;;;;;;14.52;3.15;;;42.80;25.90;;;;;;4314516;33;20095;-31
2021/05/18 05:19:44;;;;;;;21.17;4.90;;;42.90;25.50;;;;;;4314119;33;20063;-32
2021/05/18 05:22:13;;;;;;;11.68;2.45;;;42.90;25.10;;;;;;4324887;33;20187;-30
2021/05/18 05:24:41;;;;;;;25.27;3.50;;;43.00;24.50;;;;;;4331030;33;20173;-31
2021/05/18 05:27:07;;;;;;;18.15;2.08;;;43.10;24.70;;;;;;4330794;33;20073;-30
2021/05/18 05:29:33;;;;;;;10.27;2.22;;;43.40;23.10;;;;;;4329484;33;20071;-30
2021/05/18 05:32:00;;;;;;;10.85;1.77;;;43.70;23.50;;;;;;4331122;33;20715;-34
2021/05/18 05:34:26;;;;;;;6.47;1.98;;;44.00;22.90;;;;;;4330975;33;20305;-31
2021/05/18 05:36:53;;;;;;;8.80;1.98;;;44.40;23.60;;;;;;4331177;33;20071;-31
2021/05/18 05:39:23;;;;;;;11.35;1.60;;;44.70;23.00;;;;;;4331003;33;20513;-32
2021/05/18 05:41:54;;;;;;;9.27;1.58;;;44.90;22.40;;;;;;4331503;33;20063;-30
2021/05/18 05:44:21;;;;;;;10.48;2.33;;;45.00;21.80;;;;;;4331094;33;20070;-30
2021/05/18 05:46:48;;;;;;;9.82;1.70;;;45.30;22.00;;;;;;4331134;33;20068;-31
2021/05/18 05:49:15;;;;;;;7.78;1.30;;;45.50;21.20;;;;;;4330594;33;20094;-31
2021/05/18 05:51:42;;;;;;;8.68;1.50;;;45.70;21.40;;;;;;4330575;33;20184;-30
2021/05/18 05:54:08;;;;;;;16.77;2.70;;;45.80;21.20;;;;;;4330738;33;20070;-31
2021/05/18 05:56:35;;;;;;;14.93;2.83;;;45.70;20.90;;;;;;4331742;33;20504;-32
2021/05/18 05:59:04;;;;;;;7.40;1.20;;;45.70;20.70;;;;;;4345298;32;20160;-30
2021/05/18 06:01:31;;;;;;;8.57;1.87;;;45.70;19.90;;;;;;4343943;33;20443;-30
2021/05/18 06:03:58;;;;;;;5.25;1.20;;;45.80;19.90;;;;;;4345098;32;20066;-31
2021/05/18 06:06:24;;;;;;;8.43;2.20;;;46.00;19.50;;;;;;4345708;32;20075;-31
2021/05/18 06:08:51;;;;;;;5.25;1.20;;;46.20;19.10;;;;;;4345197;32;20067;-31
2021/05/18 06:48:31;;;;;;;6.32;0.80;;;49.20;17.80;;;;;;4359441;32;20548;-32
2021/05/18 06:50:58;;;;;;;2.33;0.93;;;49.20;17.60;;;;;;4359491;32;20522;-31
2021/05/18 06:53:25;;;;;;;5.00;0.80;;;49.30;17.70;;;;;;4359324;32;20072;-31
2021/05/18 06:55:53;;;;;;;13.80;0.70;;;49.30;17.70;;;;;;4359621;32;20226;-33
2021/05/18 07:01:09;;;;;;;7.70;0.98;;;49.40;17.70;;;;;;4344125;33;20584;-33
2021/05/18 07:03:49;;;;;;;4.85;1.17;;;49.30;17.60;;;;;;4344558;33;20062;-32
2021/05/18 07:11:16;;;;;;;7.57;0.90;;;49.30;17.70;;;;;;4344392;33;20202;-31
2021/05/18 07:13:43;;;;;;;3.95;0.80;;;49.30;17.60;;;;;;4344212;33;20070;-34
2021/05/18 07:16:09;;;;;;;10.80;1.58;;;49.40;17.70;;;;;;4343857;33;20153;-31
2021/05/18 07:18:36;;;;;;;4.12;0.85;;;49.40;17.60;;;;;;4344502;33;20073;-31
2021/05/18 07:21:02;;;;;;;6.82;1.00;;;49.40;17.40;;;;;;4343733;32;20167;-33
2021/05/18 07:23:29;;;;;;;4.75;0.60;;;49.50;17.10;;;;;;4330703;33;20074;-33
2021/05/18 07:25:56;;;;;;;9.07;0.80;;;49.40;17.20;;;;;;4344346;33;20129;-33
2021/05/18 07:28:27;;;;;;;9.43;1.20;;;49.50;17.20;;;;;;4344395;33;20191;-33
2021/05/18 07:30:53;;;;;;;6.15;0.80;;;49.60;16.70;;;;;;4343944;33;20067;-31
2021/05/18 07:33:20;;;;;;;5.40;0.60;;;49.70;17.10;;;;;;4344037;33;20142;-32
2021/05/18 07:35:47;;;;;;;6.60;1.30;;;49.70;17.00;;;;;;4343768;33;20082;-32
2021/05/18 07:38:13;;;;;;;7.18;2.60;;;49.70;17.10;;;;;;4344196;33;20145;-32
2021/05/18 07:40:40;;;;;;;3.40;0.60;;;49.60;17.20;;;;;;4330575;33;20495;-32
2021/05/18 07:43:06;;;;;;;6.15;0.77;;;49.60;17.00;;;;;;4343769;33;20060;-32
2021/05/18 07:45:33;;;;;;;6.85;1.02;;;49.60;17.00;;;;;;4343948;33;20245;-32
2021/05/18 07:48:12;;;;;;;5.35;0.75;;;49.60;16.90;;;;;;4343800;33;20161;-32
2021/05/18 07:50:47;;;;;;;9.18;0.70;;;49.50;17.50;;;;;;4343774;33;20149;-32
2021/05/18 08:06:52;;;;;;;7.40;0.60;;;49.60;16.20;;;;;;4357980;32;20066;-32
2021/05/18 08:09:21;;;;;;;4.12;0.70;;;49.60;16.10;;;;;;4358443;32;20101;-33
2021/05/18 08:11:48;;;;;;;3.33;0.75;;;49.60;15.90;;;;;;4358203;32;20548;-31
2021/05/18 08:14:16;;;;;;;8.23;0.70;;;49.70;16.00;;;;;;4358096;32;20059;-32
2021/05/18 08:20:19;;;;;;;9.70;0.80;;;49.60;15.70;;;;;;4358350;32;20066;-32
2021/05/18 10:36:39;;;;;;;8.82;0.70;;;49.00;14.60;;;;;;4345342;32;20110;-32
2021/05/18 10:39:31;;;;;;;15.73;0.90;;;49.10;14.50;;;;;;4359765;32;20684;-33
2021/05/18 10:42:10;;;;;;;9.70;1.00;;;49.30;14.80;;;;;;4356753;32;20629;-32
2021/05/18 10:44:56;;;;;;;12.52;1.67;;;49.20;14.70;;;;;;4347538;32;20057;-32
2021/05/18 10:47:45;;;;;;;11.35;1.20;;;49.10;14.80;;;;;;4359501;32;20058;-34
2021/05/18 10:50:12;;;;;;;8.23;1.10;;;49.00;14.60;;;;;;4359214;32;20556;-32
2021/05/18 10:52:40;;;;;;;5.75;0.95;;;49.00;14.70;;;;;;4345694;32;20092;-31
2021/05/18 10:55:08;;;;;;;8.95;1.30;;;48.90;14.60;;;;;;4358884;32;20067;-34
2021/05/18 10:57:34;;;;;;;6.32;1.30;;;49.00;14.50;;;;;;4352264;32;20047;-33
2021/05/18 11:00:09;;;;;;;8.73;0.90;;;49.20;14.70;;;;;;4344645;33;20059;-35
2021/05/18 11:02:38;;;;;;;8.20;0.77;;;49.30;14.50;;;;;;4331093;33;20118;-32
2021/05/18 11:05:10;;;;;;;8.95;0.98;;;49.30;14.60;;;;;;4330637;33;20147;-35
2021/05/18 11:07:45;;;;;;;11.10;1.40;;;49.30;14.50;;;;;;4330855;33;20074;-32
2021/05/18 11:10:16;;;;;;;6.35;1.02;;;49.30;14.60;;;;;;4344507;33;20058;-34
2021/05/18 11:12:54;;;;;;;6.65;0.68;;;49.30;14.40;;;;;;4330516;33;20152;-32
2021/05/18 11:15:22;;;;;;;4.32;0.82;;;49.30;14.50;;;;;;4330854;33;20067;-35
2021/05/18 11:17:55;;;;;;;6.75;0.70;;;49.40;14.50;;;;;;4343731;33;20438;-32
2021/05/18 11:26:08;;;;;;;14.35;1.25;;;49.80;14.30;;;;;;4282748;33;20094;-32
2021/05/18 11:28:43;;;;;;;5.68;0.60;;;50.00;14.40;;;;;;4283397;33;20064;-31
2021/05/18 11:31:21;;;;;;;3.47;0.70;;;49.90;14.30;;;;;;4283288;33;20080;-34
2021/05/18 11:33:49;;;;;;;7.10;0.60;;;50.00;14.20;;;;;;4282990;33;20091;-30
2021/05/18 11:36:29;;;;;;;5.93;0.62;;;50.00;14.20;;;;;;4283269;33;20072;-35
2021/05/18 11:39:06;;;;;;;8.68;0.70;;;49.80;14.20;;;;;;4283033;33;20173;-30
2021/05/18 11:41:38;;;;;;;6.00;0.85;;;49.70;14.30;;;;;;4283352;33;20072;-32
2021/05/18 11:44:06;;;;;;;11.52;0.80;;;49.60;14.10;;;;;;4282759;33;20169;-31
2021/05/18 11:46:35;;;;;;;8.05;0.50;;;49.60;14.00;;;;;;4283148;33;20151;-32
2021/05/18 11:49:07;;;;;;;5.62;0.47;;;49.70;14.20;;;;;;4282746;33;20616;-32
2021/05/18 11:51:47;;;;;;;5.68;0.52;;;49.80;14.40;;;;;;4282871;33;20549;-34
2021/05/18 11:54:16;;;;;;;2.42;0.40;;;49.80;14.20;;;;;;4282936;33;20084;-32
2021/05/18 11:56:43;;;;;;;3.25;0.77;;;49.60;14.10;;;;;;4282808;33;20072;-32
2021/05/18 11:59:14;;;;;;;1.87;0.50;;;49.60;14.10;;;;;;4283183;33;20059;-36
2021/05/18 12:02:01;;;;;;;7.53;0.62;;;49.60;14.00;;;;;;4293010;33;20459;-33
2021/05/18 12:04:29;;;;;;;0.90;0.40;;;49.60;13.90;;;;;;4343744;33;20075;-33
2021/05/18 12:07:02;;;;;;;4.50;0.60;;;49.50;14.00;;;;;;4343111;32;20066;-32
2021/05/18 12:09:33;;;;;;;3.55;0.60;;;49.50;14.20;;;;;;4343702;33;20069;-34
2021/05/18 12:12:08;;;;;;;4.32;0.80;;;49.60;14.10;;;;;;4343337;33;20517;-32
2021/05/18 12:14:49;;;;;;;5.15;0.60;;;49.70;14.20;;;;;;4329493;33;20496;-32
2021/05/18 12:17:31;;;;;;;3.83;0.60;;;49.80;14.00;;;;;;4343196;33;20078;-38
2021/05/18 12:19:58;;;;;;;3.60;0.50;;;49.80;13.80;;;;;;4329756;33;20081;-38
2021/05/18 12:22:25;;;;;;;10.38;1.80;;;49.60;13.70;;;;;;4343266;33;20130;-35
2021/05/18 12:24:54;;;;;;;8.43;0.70;;;49.50;13.90;;;;;;4343319;33;20063;-38
2021/05/18 12:27:20;;;;;;;5.90;0.50;;;49.30;14.10;;;;;;4342902;33;20065;-35
2021/05/18 12:29:55;;;;;;;8.35;0.70;;;49.00;14.40;;;;;;4343080;33;20102;-34
2021/05/18 12:32:30;;;;;;;4.97;0.50;;;48.70;14.20;;;;;;4343607;33;20073;-34
2021/05/18 12:35:06;;;;;;;2.60;0.40;;;48.50;13.80;;;;;;4343154;33;20101;-36
2021/05/18 12:37:44;;;;;;;1.95;0.30;;;48.20;13.50;;;;;;4343196;33;20507;-38
2021/05/18 12:40:29;;;;;;;2.53;0.40;;;48.00;13.50;;;;;;4343182;33;20515;-36
2021/05/18 12:43:13;;;;;;;1.27;0.40;;;48.00;14.20;;;;;;4329645;33;20539;-34
2021/05/18 12:45:41;;;;;;;1.35;0.40;;;47.90;13.50;;;;;;4343301;33;20062;-34
2021/05/18 12:48:09;;;;;;;6.20;0.40;;;47.60;13.30;;;;;;4343201;33;20155;-30
2021/05/18 12:50:50;;;;;;;2.85;0.62;;;47.30;13.30;;;;;;4342957;33;20086;-32
2021/05/18 12:53:30;;;;;;;6.12;1.42;;;47.10;13.40;;;;;;4343123;33;20075;-31
2021/05/18 12:55:57;;;;;;;3.33;0.40;;;46.90;13.70;;;;;;4342809;33;20630;-31
2021/05/18 12:58:31;;;;;;;8.55;0.57;;;46.70;13.10;;;;;;4355237;32;20100;-31
2021/05/18 13:01:15;;;;;;;5.20;0.40;;;46.60;13.20;;;;;;4357641;32;20074;-31
2021/05/18 13:03:43;;;;;;;3.12;0.35;;;46.40;13.30;;;;;;4358194;32;20102;-33
2021/05/18 13:06:09;;;;;;;7.30;1.02;;;46.10;13.50;;;;;;4358037;32;20075;-32
2021/05/18 13:08:38;;;;;;;7.75;0.70;;;46.00;13.50;;;;;;4357769;32;20508;-32
2021/05/18 13:12:11;;;;;;;4.15;0.60;;;45.90;13.80;;;;;;4357538;32;20046;-31
2021/05/18 13:14:04;;;;;;;3.67;0.80;;;45.90;13.90;;;;;;4357221;32;20082;-32
2021/05/18 13:16:33;;;;;;;18.37;1.65;;;46.00;13.90;;;;;;4357654;32;20063;-31
2021/05/18 13:19:07;;;;;;;1.48;0.50;;;46.10;13.70;;;;;;4359125;32;20090;-32
2021/05/18 13:21:54;;;;;;;6.70;0.60;;;46.20;13.50;;;;;;4346995;32;20071;-32
2021/05/18 13:27:09;;;;;;;3.35;0.73;;;46.70;13.70;;;;;;4360314;32;20526;-34
2021/05/18 13:29:36;;;;;;;5.30;0.50;;;46.90;13.50;;;;;;4360476;32;20140;-31
2021/05/18 13:32:03;;;;;;;5.82;0.55;;;47.00;13.60;;;;;;4360185;32;20108;-31
2021/05/18 13:34:29;;;;;;;7.70;0.70;;;47.00;13.70;;;;;;4346672;32;20146;-31
2021/05/18 13:36:56;;;;;;;5.97;0.60;;;47.00;14.30;;;;;;4360253;32;20085;-31
2021/05/18 13:39:26;;;;;;;3.08;0.50;;;46.90;14.00;;;;;;4346672;32;20545;-31
2021/05/18 13:41:53;;;;;;;5.12;0.50;;;46.80;14.20;;;;;;4360608;32;20065;-32
2021/05/18 13:44:19;;;;;;;6.72;0.70;;;46.70;13.90;;;;;;4360145;32;20070;-31
2021/05/18 13:46:47;;;;;;;9.48;0.50;;;46.60;14.00;;;;;;4360570;32;20118;-31
2021/05/18 13:49:16;;;;;;;5.32;0.70;;;46.40;14.00;;;;;;4334151;32;20085;-33
2021/05/18 13:51:43;;;;;;;7.25;0.73;;;46.30;13.80;;;;;;4346370;32;20159;-32
2021/05/18 13:54:10;;;;;;;4.53;0.90;;;46.20;14.10;;;;;;4360024;32;20149;-31
2021/05/18 13:56:37;;;;;;;2.30;0.40;;;46.30;14.00;;;;;;4358620;32;20494;-32
2021/05/18 13:59:03;;;;;;;3.28;1.33;;;46.30;14.20;;;;;;4345147;33;20105;-34
2021/05/18 14:01:30;;;;;;;4.93;0.60;;;46.20;14.20;;;;;;4344730;33;20482;-32
2021/05/18 14:03:56;;;;;;;4.18;0.90;;;46.00;13.70;;;;;;4331633;33;20209;-31
2021/05/18 14:06:23;;;;;;;5.53;2.87;;;45.80;13.80;;;;;;4345003;33;20164;-34
2021/05/18 14:08:50;;;;;;;3.50;0.60;;;45.50;13.50;;;;;;4344935;33;20066;-32
2021/05/18 14:11:20;;;;;;;4.35;0.50;;;45.30;14.00;;;;;;4330914;33;20173;-34
2021/05/18 14:13:51;;;;;;;9.43;0.70;;;45.20;14.10;;;;;;4345183;33;20069;-31
2021/05/18 14:16:19;;;;;;;8.00;0.62;;;45.20;14.20;;;;;;4331373;33;20178;-34
2021/05/18 14:18:47;;;;;;;5.45;1.12;;;45.20;14.30;;;;;;4345196;33;20059;-33
2021/05/18 14:21:13;;;;;;;6.70;0.50;;;45.30;14.20;;;;;;4344475;33;20070;-35
2021/05/18 14:26:28;;;;;;;5.87;0.60;;;45.60;14.50;;;;;;4344567;33;20071;-35
2021/05/18 14:28:55;;;;;;;4.62;0.57;;;45.60;14.40;;;;;;4318837;32;20082;-35
2021/05/18 14:31:23;;;;;;;5.47;0.73;;;45.60;14.40;;;;;;4331029;33;20062;-31
2021/05/18 14:33:49;;;;;;;6.25;0.52;;;45.60;14.40;;;;;;4331564;33;20140;-31
2021/05/18 14:36:16;;;;;;;8.18;0.70;;;45.60;14.60;;;;;;4331247;33;20616;-31
2021/05/18 14:38:45;;;;;;;5.35;0.82;;;45.60;14.90;;;;;;4344554;33;20149;-32
2021/05/18 14:46:46;;;;;;;5.53;1.23;;;45.40;14.60;;;;;;4344875;33;20081;-31
2021/05/18 14:54:51;;;;;;;4.28;0.60;;;45.20;15.10;;;;;;4312727;33;20102;-31
2021/05/18 14:57:17;;;;;;;7.93;0.60;;;45.10;15.20;;;;;;4317835;33;20495;-33
2021/05/18 14:59:44;;;;;;;15.80;1.30;;;45.00;15.50;;;;;;4327281;33;20066;-31
2021/05/18 15:02:10;;;;;;;7.95;0.80;;;44.70;15.30;;;;;;4327512;33;20051;-31
2021/05/18 15:04:37;;;;;;;7.07;0.65;;;44.50;15.30;;;;;;4327080;33;20098;-33
2021/05/18 15:07:07;;;;;;;10.00;0.60;;;44.40;15.30;;;;;;4326780;33;20075;-32
2021/05/18 15:09:41;;;;;;;8.40;0.70;;;44.10;15.60;;;;;;4326661;33;20199;-33
2021/05/18 15:12:08;;;;;;;22.23;1.55;;;44.00;15.70;;;;;;4327210;33;20173;-31
2021/05/18 15:14:35;;;;;;;10.75;0.80;;;43.80;15.90;;;;;;4326331;33;20063;-33
2021/05/18 15:17:03;;;;;;;6.65;0.80;;;43.70;15.70;;;;;;4326861;33;20084;-31
2021/05/18 15:19:30;;;;;;;6.87;0.90;;;43.60;15.90;;;;;;4326530;33;20154;-37
2021/05/18 15:21:58;;;;;;;9.50;1.00;;;43.40;16.10;;;;;;4327014;33;20154;-37
2021/05/18 15:24:27;;;;;;;17.12;1.30;;;43.30;16.40;;;;;;4326838;33;20605;-31
2021/05/18 15:26:53;;;;;;;16.65;1.33;;;43.10;16.00;;;;;;4345913;32;20059;-33
2021/05/18 15:29:21;;;;;;;7.65;1.42;;;42.90;16.60;;;;;;4345355;32;20078;-31
2021/05/18 15:31:48;;;;;;;16.30;1.02;;;42.70;17.20;;;;;;4358675;32;20077;-32
2021/05/18 15:34:14;;;;;;;13.05;0.98;;;42.40;17.30;;;;;;4344568;32;20078;-34
2021/05/18 15:36:42;;;;;;;8.80;1.67;;;42.10;16.80;;;;;;4358532;32;20131;-32
2021/05/18 15:39:09;;;;;;;6.12;0.60;;;41.80;15.60;;;;;;4358734;32;20150;-36
2021/05/18 15:41:35;;;;;;;12.90;1.50;;;41.50;15.70;;;;;;4357995;32;20066;-37
2021/05/18 15:44:03;;;;;;;12.20;1.67;;;41.30;15.80;;;;;;4358518;32;20054;-34
2021/05/18 15:46:30;;;;;;;23.30;2.03;;;41.10;15.80;;;;;;4344532;32;20071;-32
2021/05/18 15:48:56;;;;;;;37.08;16.42;;;40.80;16.00;;;;;;4344832;32;20112;-32
2021/05/18 15:51:23;;;;;;;9.18;3.50;;;40.60;16.00;;;;;;4358583;32;20078;-33
2021/05/18 15:53:49;;;;;;;15.25;2.10;;;40.30;16.10;;;;;;4358655;32;20121;-31
2021/05/18 15:56:15;;;;;;;8.27;1.23;;;40.10;16.30;;;;;;4358432;32;20089;-34
2021/05/18 15:58:42;;;;;;;4.95;0.90;;;39.80;16.30;;;;;;4344097;32;20096;-31
2021/05/18 16:01:09;;;;;;;11.02;1.37;;;39.60;16.40;;;;;;4343159;33;20055;-31
2021/05/18 16:03:35;;;;;;;14.27;2.28;;;39.40;16.40;;;;;;4329331;33;20629;-33
2021/05/18 16:06:03;;;;;;;12.90;1.75;;;39.20;16.40;;;;;;4343096;33;20085;-31
2021/05/18 16:11:03;;;;;;;12.82;1.60;;;38.80;16.50;;;;;;4343640;33;20102;-30
2021/05/18 16:13:30;;;;;;;12.00;1.90;;;38.60;16.60;;;;;;4342972;33;20114;-32
2021/05/18 16:16:06;;;;;;;14.52;2.08;;;38.50;16.70;;;;;;4343486;33;20073;-31
2021/05/18 16:18:33;;;;;;;8.82;0.77;;;38.30;16.70;;;;;;4329568;33;20074;-32
2021/05/18 16:21:00;;;;;;;10.98;1.30;;;38.10;16.50;;;;;;4343654;33;20047;-32
2021/05/18 16:23:29;;;;;;;5.55;1.00;;;38.00;16.70;;;;;;4343076;33;20592;-30
2021/05/18 16:25:56;;;;;;;13.73;1.30;;;37.80;16.70;;;;;;4343193;33;20558;-34
2021/05/18 16:28:23;;;;;;;7.00;1.27;;;37.60;16.60;;;;;;4329469;33;20070;-32
2021/05/18 16:30:50;;;;;;;6.50;1.10;;;37.30;16.50;;;;;;4343032;33;20546;-32
2021/05/18 16:33:17;;;;;;;10.32;0.90;;;37.20;16.60;;;;;;4342726;33;20075;-32
2021/05/18 16:35:44;;;;;;;12.95;1.20;;;37.00;16.60;;;;;;4343284;33;20128;-31
2021/05/18 16:38:11;;;;;;;8.90;1.48;;;36.90;17.40;;;;;;4342964;33;20090;-32
2021/05/18 16:40:37;;;;;;;11.20;1.40;;;36.70;17.00;;;;;;4342584;33;20543;-32
2021/05/18 16:43:04;;;;;;;6.37;1.02;;;36.50;17.10;;;;;;4296574;33;20068;-33
2021/05/18 16:45:30;;;;;;;15.60;1.40;;;36.40;17.20;;;;;;4296378;33;20071;-31
2021/05/18 16:47:57;;;;;;;17.23;1.60;;;36.20;17.30;;;;;;4296562;33;20115;-36
2021/05/18 16:50:23;;;;;;;10.00;1.42;;;36.10;17.40;;;;;;4281865;33;20091;-35
2021/05/18 16:52:50;;;;;;;12.07;1.55;;;36.00;17.60;;;;;;4281774;33;20589;-30
2021/05/18 16:55:16;;;;;;;13.20;1.50;;;35.80;17.70;;;;;;4282002;33;20064;-34
2021/05/18 16:57:43;;;;;;;13.10;1.40;;;35.60;17.70;;;;;;4281883;33;20477;-32
2021/05/18 17:00:11;;;;;;;8.75;1.60;;;35.50;17.80;;;;;;4281896;33;20147;-31
2021/05/18 17:02:37;;;;;;;6.45;1.58;;;35.40;18.00;;;;;;4282015;33;20619;-31
2021/05/18 17:05:06;;;;;;;11.60;2.00;;;35.20;18.00;;;;;;4281573;33;20083;-35
2021/05/18 17:07:32;;;;;;;7.75;1.30;;;35.10;18.20;;;;;;4282101;33;20056;-31
2021/05/18 17:09:59;;;;;;;5.93;1.45;;;34.90;18.20;;;;;;4270379;33;20522;-36
2021/05/18 17:12:25;;;;;;;9.30;1.35;;;34.80;18.30;;;;;;4282344;33;20155;-32
2021/05/18 17:14:52;;;;;;;12.93;1.12;;;34.70;18.40;;;;;;4281759;33;20110;-32
2021/05/18 17:17:18;;;;;;;8.82;1.48;;;34.60;18.40;;;;;;4282054;33;20774;-32
2021/05/18 17:19:45;;;;;;;9.07;1.98;;;34.40;18.30;;;;;;4287384;33;20068;-30
2021/05/18 17:22:13;;;;;;;3.40;0.90;;;34.30;18.30;;;;;;4336969;33;20542;-31
2021/05/18 17:24:40;;;;;;;7.32;1.45;;;34.20;18.20;;;;;;4343127;33;20157;-32
2021/05/18 17:27:07;;;;;;;13.68;0.70;;;34.10;18.10;;;;;;4342812;33;20233;-34
2021/05/18 17:29:33;;;;;;;6.45;0.93;;;34.00;18.10;;;;;;4329570;33;20190;-33
2021/05/18 17:32:01;;;;;;;8.75;1.15;;;33.90;18.10;;;;;;4343139;33;20144;-32
2021/05/18 17:34:27;;;;;;;5.57;0.80;;;33.90;18.10;;;;;;4329244;33;20185;-30
2021/05/18 17:36:54;;;;;;;7.03;0.93;;;33.80;18.20;;;;;;4329007;33;20059;-31
2021/05/18 17:39:21;;;;;;;13.23;1.00;;;33.70;18.20;;;;;;4342629;33;20048;-31
2021/05/18 17:41:48;;;;;;;11.52;1.95;;;33.70;18.20;;;;;;4342710;33;20614;-30
2021/05/18 17:44:14;;;;;;;9.80;1.27;;;33.70;18.30;;;;;;4342432;33;20058;-33
2021/05/18 17:46:41;;;;;;;6.47;1.20;;;33.60;18.40;;;;;;4342876;33;20629;-31
2021/05/18 17:49:08;;;;;;;12.55;1.73;;;33.50;18.50;;;;;;4342548;33;20515;-31
2021/05/18 17:51:35;;;;;;;6.25;1.33;;;33.50;18.50;;;;;;4342923;33;20059;-31
2021/05/18 17:54:03;;;;;;;6.32;1.40;;;33.40;18.60;;;;;;4343285;33;20063;-30
2021/05/18 17:56:29;;;;;;;7.65;1.00;;;33.30;19.00;;;;;;4329443;32;20463;-32
2021/05/18 17:58:56;;;;;;;16.12;2.05;;;33.20;19.00;;;;;;4357276;32;20141;-31
2021/05/18 18:01:23;;;;;;;13.10;1.80;;;33.10;18.90;;;;;;4356985;32;20657;-33
2021/05/18 18:03:49;;;;;;;11.20;1.95;;;33.00;18.90;;;;;;4343447;32;20074;-33
2021/05/18 18:06:16;;;;;;;14.75;1.45;;;32.90;18.80;;;;;;4360141;32;20090;-31
2021/05/18 18:08:44;;;;;;;10.27;1.33;;;32.80;18.60;;;;;;4360229;32;20535;-32
2021/05/18 18:11:10;;;;;;;8.05;1.50;;;32.70;18.70;;;;;;4360113;32;20061;-30